createdAt,value
2024-03-26T13:01:50.177Z,44.90
2024-03-26T13:02:49.615Z,6.30
2024-03-26T14:45:50.802Z,4.70
2024-03-26T15:11:03.478Z,3.60
2024-03-26T15:30:56.011Z,5.80
2024-03-26T15:32:00.020Z,5.00
2024-03-26T15:42:31.573Z,6.60
2024-03-26T15:43:35.372Z,6.30
2024-03-26T15:44:34.462Z,7.60
2024-03-26T15:45:34.938Z,9.60
2024-03-26T15:46:44.448Z,8.00
2024-03-26T15:47:36.432Z,6.10
2024-03-26T15:48:35.150Z,6.40
2024-03-26T15:49:33.579Z,7.40
2024-03-26T15:50:33.370Z,10.70
2024-03-26T16:07:42.562Z,4.20
2024-03-26T16:30:06.023Z,6.10
2024-03-26T16:31:06.620Z,9.40
2024-03-26T16:32:09.002Z,5.70
2024-03-26T16:33:07.958Z,9.00
2024-03-26T16:34:08.107Z,15.50
2024-03-26T16:35:08.478Z,12.10
2024-03-26T16:36:08.104Z,6.90
2024-03-26T16:42:12.115Z,4.50
2024-03-26T16:43:14.740Z,6.60
2024-03-26T16:44:14.940Z,6.30
2024-03-26T16:45:14.710Z,6.70
2024-03-26T16:46:14.024Z,8.10
2024-03-26T16:47:14.449Z,8.00
2024-03-26T16:48:13.819Z,8.10
2024-03-26T16:49:15.139Z,7.30
2024-03-26T16:50:14.009Z,7.00
2024-03-26T16:51:14.303Z,5.40
2024-03-26T16:52:13.809Z,8.60
2024-03-26T16:53:13.939Z,7.10
2024-03-26T16:54:15.066Z,7.60
2024-03-26T16:55:14.648Z,5.90
2024-03-26T16:56:14.543Z,5.50
2024-03-26T16:57:13.880Z,6.30
2024-03-26T16:58:13.676Z,6.00
2024-03-26T16:59:15.807Z,5.00
2024-03-26T17:00:14.065Z,5.90
2024-03-26T17:12:36.508Z,4.70
2024-03-26T17:13:37.837Z,6.80
2024-03-26T17:14:39.488Z,5.50
2024-03-26T17:15:38.326Z,5.60
2024-03-26T17:16:59.334Z,7.40
2024-03-26T17:17:40.292Z,6.30
2024-03-26T17:18:38.859Z,7.10
2024-03-26T17:19:40.881Z,8.50
2024-03-26T17:20:39.409Z,6.50
2024-03-26T17:21:38.580Z,7.50
2024-03-26T17:22:39.338Z,9.10
2024-03-26T17:27:09.094Z,6.40
2024-03-26T17:28:10.367Z,9.20
2024-03-26T17:29:10.088Z,10.40
2024-03-26T17:30:09.871Z,13.00
2024-03-26T17:31:09.430Z,18.80
2024-03-26T17:32:10.088Z,26.90
2024-03-26T17:33:09.248Z,31.70
2024-03-26T17:34:10.487Z,35.80
2024-03-26T17:41:52.718Z,41.00
2024-03-26T21:21:45.535Z,11.70
2024-03-26T21:22:46.612Z,170.60
2024-03-26T21:23:46.708Z,228.10
2024-03-26T21:24:46.652Z,280.00
2024-03-26T21:25:46.475Z,364.80
2024-03-26T21:26:46.615Z,385.40
2024-03-26T21:27:46.609Z,257.50
2024-03-26T21:28:46.601Z,256.30
2024-03-26T21:29:46.484Z,279.40
2024-03-26T21:30:46.584Z,213.40
2024-03-26T21:31:46.381Z,216.40
2024-03-26T21:32:46.548Z,211.00
2024-03-26T21:33:46.572Z,200.80
2024-03-26T21:34:46.494Z,209.70
2024-03-26T21:35:46.626Z,291.30
2024-03-26T21:36:46.793Z,299.80
2024-03-26T21:37:46.579Z,256.20
2024-03-26T21:38:47.499Z,287.60
2024-03-26T21:39:46.668Z,248.80
2024-03-26T21:40:46.448Z,216.30
2024-03-26T21:41:46.964Z,235.90
2024-03-26T21:42:46.543Z,298.60
2024-03-26T21:43:46.421Z,279.00
2024-03-26T21:44:46.457Z,230.50
2024-03-26T21:45:46.467Z,256.10
2024-03-26T21:46:46.593Z,252.20
2024-03-26T21:47:46.691Z,241.60
2024-03-26T21:48:46.466Z,286.80
2024-03-26T21:49:47.440Z,257.00
2024-03-26T21:50:46.493Z,241.90
2024-03-26T21:51:46.399Z,231.40
2024-03-26T21:52:46.530Z,232.90
2024-03-26T21:53:46.412Z,222.00
2024-03-26T21:54:46.344Z,210.20
2024-03-26T21:55:46.398Z,239.10
2024-03-26T21:56:46.226Z,212.60
2024-03-26T21:57:46.236Z,198.10
2024-03-26T21:58:46.402Z,174.10
2024-03-26T21:59:46.314Z,192.40
2024-03-26T22:00:46.876Z,228.80
2024-03-26T22:01:46.246Z,213.80
2024-03-26T22:02:46.467Z,234.30
2024-03-26T22:03:46.332Z,231.60
2024-03-26T22:04:46.257Z,243.10
2024-03-26T22:05:46.417Z,230.40
2024-03-26T22:06:46.353Z,227.80
2024-03-26T22:07:46.392Z,218.00
2024-03-26T22:08:46.248Z,192.90
2024-03-26T22:09:46.300Z,194.70
2024-03-26T22:10:46.272Z,226.20
2024-03-26T22:11:46.574Z,239.60
2024-03-26T22:12:46.225Z,256.40
2024-03-26T22:13:46.198Z,232.30
2024-03-26T22:14:46.203Z,229.30
2024-03-26T22:15:46.199Z,223.60
2024-03-26T22:16:46.313Z,232.40
2024-03-26T22:17:46.147Z,223.30
2024-03-26T22:18:46.156Z,223.40
2024-03-26T22:19:46.360Z,271.70
2024-03-26T22:20:46.154Z,246.60
2024-03-26T22:21:48.483Z,243.60
2024-03-26T22:22:46.070Z,257.30
2024-03-26T22:23:46.121Z,257.20
2024-03-26T22:24:46.099Z,284.20
2024-03-26T22:25:46.443Z,256.10
2024-03-26T22:26:46.240Z,269.10
2024-03-26T22:27:46.501Z,258.70
2024-03-26T22:28:46.110Z,293.50
2024-03-26T22:29:46.303Z,277.50
2024-03-26T22:30:46.215Z,295.70
2024-03-26T22:31:46.070Z,306.10
2024-03-26T22:32:46.229Z,318.70
2024-03-26T22:33:46.304Z,341.50
2024-03-26T22:34:46.073Z,314.60
2024-03-26T22:35:46.218Z,288.00
2024-03-26T22:36:46.039Z,280.00
2024-03-26T22:37:46.121Z,284.20
2024-03-26T22:38:46.467Z,278.90
2024-03-26T22:39:46.091Z,291.50
2024-03-26T22:40:46.120Z,291.00
2024-03-26T22:41:46.090Z,284.30
2024-03-26T22:42:46.207Z,290.90
2024-03-26T22:43:46.036Z,339.00
2024-03-26T22:44:46.235Z,323.80
2024-03-26T22:45:46.038Z,295.00
2024-03-26T22:46:46.207Z,289.80
2024-03-26T22:47:46.040Z,279.60
2024-03-26T22:48:46.208Z,312.80
2024-03-26T22:49:45.917Z,313.50
2024-03-26T22:50:46.351Z,308.40
2024-03-26T22:51:45.868Z,346.70
2024-03-26T22:52:45.867Z,318.70
2024-03-26T22:53:45.897Z,315.20
2024-03-26T22:54:45.883Z,342.00
2024-03-26T22:55:45.903Z,349.70
2024-03-26T22:56:45.865Z,350.10
2024-03-26T22:57:45.888Z,336.30
2024-03-26T22:58:45.903Z,379.50
2024-03-26T22:59:45.959Z,322.20
2024-03-26T23:00:45.857Z,340.80
2024-03-26T23:01:45.801Z,340.80
2024-03-26T23:02:45.960Z,385.10
2024-03-26T23:03:45.854Z,375.20
2024-03-26T23:04:45.872Z,355.40
2024-03-26T23:05:46.047Z,361.20
2024-03-26T23:06:45.880Z,407.90
2024-03-26T23:07:46.284Z,420.10
2024-03-26T23:08:45.895Z,400.40
2024-03-26T23:09:46.455Z,387.40
2024-03-26T23:10:45.734Z,355.90
2024-03-26T23:11:45.880Z,394.00
2024-03-26T23:12:45.656Z,373.60
2024-03-26T23:13:45.950Z,399.70
2024-03-26T23:14:45.928Z,404.90
2024-03-26T23:15:45.802Z,393.70
2024-03-26T23:16:45.776Z,419.40
2024-03-26T23:17:45.811Z,441.00
2024-03-26T23:18:45.915Z,486.30
2024-03-26T23:19:46.135Z,462.10
2024-03-26T23:20:45.760Z,485.40
2024-03-26T23:21:45.740Z,523.50
2024-03-26T23:22:45.787Z,529.60
2024-03-26T23:23:45.765Z,550.20
2024-03-26T23:24:45.795Z,503.30
2024-03-26T23:25:45.784Z,548.90
2024-03-26T23:26:45.626Z,511.80
2024-03-26T23:27:45.659Z,509.80
2024-03-26T23:28:45.684Z,523.40
2024-03-26T23:29:45.711Z,549.40
2024-03-26T23:30:45.643Z,564.90
2024-03-26T23:31:45.729Z,604.80
2024-03-26T23:32:45.833Z,641.50
2024-03-26T23:33:45.654Z,654.70
2024-03-26T23:34:45.683Z,635.30
2024-03-26T23:35:45.658Z,658.20
2024-03-26T23:36:45.609Z,659.60
2024-03-26T23:37:45.647Z,638.20
2024-03-26T23:38:46.481Z,668.80
2024-03-26T23:39:45.624Z,662.90
2024-03-26T23:40:45.568Z,683.70
2024-03-26T23:41:45.844Z,713.30
2024-03-26T23:42:45.622Z,817.30
2024-03-26T23:43:45.600Z,812.40
2024-03-26T23:44:45.523Z,779.20
2024-03-26T23:45:45.642Z,871.10
2024-03-26T23:46:45.614Z,846.60
2024-03-26T23:47:45.888Z,900.20
2024-03-26T23:48:45.627Z,960.70
2024-03-26T23:49:45.401Z,1071.00
2024-03-26T23:50:45.538Z,1158.90
2024-03-26T23:51:45.673Z,1191.40
2024-03-26T23:52:45.643Z,1136.80
2024-03-26T23:53:45.685Z,1115.10
2024-03-26T23:54:45.587Z,1097.90
2024-03-26T23:55:45.636Z,1110.20
2024-03-26T23:56:45.532Z,1137.60
2024-03-26T23:57:45.655Z,1128.00
2024-03-26T23:58:45.857Z,1120.00
2024-03-26T23:59:45.587Z,1113.10
